MMCU/CUU METAR and TAF weather

Enter ICAO airport designator
Station Type Date Time Source
MMCU METAR 2020/03/31 03:40 UTC NOAA

MMCU 310340Z 01009KT 10SM SCT080 OVC200 17/M10 A3017 RMK 8/077 BINOVC


Station Type Date Time Source
MMCU Decoded METAR 2020/03/31 03:40 UTC NOAA

Chihuahua International Airport, Mexico (MMCU) 28-42N 105-58W
Mar 30, 2020 - 11:40 PM EDT / 2020.03.31 0340 UTC
Wind: from the N (010 degrees) at 10 MPH (9 KT):0
Visibility: 10 mile(s):0
Sky conditions: overcast
Temperature: 62 F (17 C)
Dew Point: 14 F (-10 C)
Relative Humidity: 14%
Pressure (altimeter): 30.17 in. Hg (1021 hPa)
ob: MMCU 310340Z 01009KT 10SM SCT080 OVC200 17/M10 A3017 RMK 8/077 BINOVC
cycle: 3

Station Type Date Time Source
MMCU TAF 2020/03/31 06:27 UTC NOAA

TAF MMCU 310523Z 3106/0106 01007KT P6SM SCT080 BKN250
FM311800 12014KT P6SM BKN080 BKN250
FM010500 13005KT P6SM BKN250

Example: see airport list